Flugplatz Beilngries

Für EDNC sind keine METAR/TAF Berichte vorhanden.
Es werden die Flugwettermeldungen vom Flugplatz Hohenfels Army Air Field in 33 km Entfernung angezeigt.

Bericht für ETIH

vom 18.09. um 22:56 UTC

Wind 3 kt aus 280°

Sichtweite 10 km oder mehr

keine Wolken

Temperatur 5.5°C

Taupunkt 3.2°C

Luftfeuchtigkeit 85%

Luftdruck 1024 hPa

ETIH 182256Z AUTO 28003KT 9999 CLR 06/03 A3025 RMK AO2 SLP246 T00550032
Keine Prognose (TAF) verfügbar.
Impressum